Time;durP1;ratioP1;P1;durP2;ratioP2;P2;SDS_P1;SDS_P2;PMS_P1;PMS_P2;Temp;Humidity;BMP_temperature;BMP_pressure;BME280_temperature;BME280_humidity;BME280_pressure;Samples;Min_cycle;Max_cycle;Signal;HPM_P1;HPM_P2
2023/08/06 00:01:14;;;;;;;;;;;16.60;99.90;;;;;;5093529;28;19912;-68
2023/08/06 00:03:39;;;;;;;;;;;16.60;99.90;;;;;;5094548;28;19904;-68
2023/08/06 00:06:06;;;;;;;;;;;16.70;99.90;;;;;;5095147;28;19911;-69
2023/08/06 00:08:31;;;;;;;;;;;16.60;99.90;;;;;;5094546;28;19924;-67
2023/08/06 00:10:57;;;;;;;;;;;16.60;99.90;;;;;;5094757;28;20265;-69
2023/08/06 00:13:22;;;;;;;;;;;16.60;99.90;;;;;;5094649;28;20380;-69
2023/08/06 00:15:48;;;;;;;;;;;16.60;99.90;;;;;;5094472;28;20312;-70
2023/08/06 00:18:13;;;;;;;;;;;16.50;99.90;;;;;;5093916;28;20341;-68
2023/08/06 00:20:40;;;;;;;;;;;16.50;99.90;;;;;;5094725;28;19908;-69
2023/08/06 00:23:06;;;;;;;;;;;16.50;99.90;;;;;;5094511;28;20237;-68
2023/08/06 00:25:31;;;;;;;;;;;16.60;99.90;;;;;;5094322;28;19911;-70
2023/08/06 00:27:57;;;;;;;;;;;16.60;99.90;;;;;;5094245;28;19930;-69
2023/08/06 00:30:22;;;;;;;;;;;16.60;99.90;;;;;;5094952;28;20381;-68
2023/08/06 00:32:48;;;;;;;;;;;16.60;99.90;;;;;;5092898;28;19920;-69
2023/08/06 00:35:14;;;;;;;;;;;16.60;99.90;;;;;;5093034;28;20054;-69
2023/08/06 00:37:40;;;;;;;;;;;16.50;99.90;;;;;;5094232;28;20003;-69
2023/08/06 00:40:06;;;;;;;;;;;16.60;99.90;;;;;;5094634;28;20235;-68
2023/08/06 00:42:32;;;;;;;;;;;16.60;99.90;;;;;;5094537;28;19912;-68
2023/08/06 00:44:57;;;;;;;;;;;16.60;99.90;;;;;;5094267;28;20309;-68
2023/08/06 00:47:23;;;;;;;;;;;16.60;99.90;;;;;;5092667;28;19965;-68
2023/08/06 00:49:49;;;;;;;;;;;16.70;99.90;;;;;;5093955;28;19923;-69
2023/08/06 00:52:14;;;;;;;;;;;16.70;99.90;;;;;;5094010;28;20231;-69
2023/08/06 00:54:40;;;;;;;;;;;16.70;99.90;;;;;;5092950;28;19904;-68
2023/08/06 00:57:06;;;;;;;;;;;16.70;99.90;;;;;;5094264;28;19982;-69
2023/08/06 00:59:32;;;;;;;;;;;16.70;99.90;;;;;;5093757;28;19908;-69
2023/08/06 01:01:58;;;;;;;;;;;16.70;99.90;;;;;;5093699;28;20202;-69
2023/08/06 01:04:24;;;;;;;;;;;16.70;99.90;;;;;;5093571;28;19908;-69
2023/08/06 01:07:00;;;;;;;;;;;16.70;99.90;;;;;;5093546;28;19918;-69
2023/08/06 01:09:37;;;;;;;;;;;16.70;99.90;;;;;;5094104;28;19914;-69
2023/08/06 01:12:21;;;;;;;;;;;16.70;99.90;;;;;;5093604;28;19992;-68
2023/08/06 01:15:06;;;;;;;;;;;16.70;99.90;;;;;;5093359;28;20002;-69
2023/08/06 01:17:31;;;;;;;;;;;16.70;99.90;;;;;;5093390;28;19912;-69
2023/08/06 01:19:57;;;;;;;;;;;16.80;99.90;;;;;;5092098;28;19908;-68
2023/08/06 01:22:22;;;;;;;;;;;16.70;99.90;;;;;;5092236;28;20388;-68
2023/08/06 01:24:49;;;;;;;;;;;16.80;99.90;;;;;;5093411;28;19969;-69
2023/08/06 01:27:17;;;;;;;;;;;16.80;99.90;;;;;;5093634;28;19900;-68
2023/08/06 01:29:48;;;;;;;;;;;16.80;99.90;;;;;;5093146;28;19915;-68
2023/08/06 01:32:15;;;;;;;;;;;16.80;99.90;;;;;;5092986;28;20388;-68
2023/08/06 01:34:41;;;;;;;;;;;16.70;99.90;;;;;;5092733;28;20322;-69
2023/08/06 01:37:07;;;;;;;;;;;16.70;99.90;;;;;;5073340;28;19951;-68
2023/08/06 01:39:35;;;;;;;;;;;16.70;99.90;;;;;;5073523;28;19958;-68
2023/08/06 01:42:01;;;;;;;;;;;16.80;99.90;;;;;;5073021;28;19954;-69
2023/08/06 01:44:27;;;;;;;;;;;16.70;99.90;;;;;;5072604;28;20324;-69
2023/08/06 01:46:52;;;;;;;;;;;16.70;99.90;;;;;;5072558;28;19909;-68
2023/08/06 01:49:18;;;;;;;;;;;16.70;99.90;;;;;;5072552;28;20258;-69
2023/08/06 01:51:43;;;;;;;;;;;16.70;99.90;;;;;;5072629;28;19929;-69
2023/08/06 01:54:09;;;;;;;;;;;16.60;99.90;;;;;;5072756;28;19905;-69
2023/08/06 01:56:34;;;;;;;;;;;16.60;99.90;;;;;;5072627;28;19946;-68
2023/08/06 01:59:00;;;;;;;;;;;16.60;99.90;;;;;;5072381;28;19908;-70
2023/08/06 02:01:25;;;;;;;;;;;16.60;99.90;;;;;;5072204;28;19912;-68
2023/08/06 02:03:51;;;;;;;;;;;16.70;99.90;;;;;;5072448;28;19916;-68
2023/08/06 02:06:16;;;;;;;;;;;16.60;99.90;;;;;;5072594;28;19907;-68
2023/08/06 02:08:42;;;;;;;;;;;16.70;99.90;;;;;;5072158;28;20260;-69
2023/08/06 02:11:08;;;;;;;;;;;16.70;99.90;;;;;;5072064;28;19944;-68
2023/08/06 02:13:33;;;;;;;;;;;16.70;99.90;;;;;;5072191;28;19924;-68
2023/08/06 02:15:59;;;;;;;;;;;16.70;99.90;;;;;;5072186;28;19912;-69
2023/08/06 02:18:24;;;;;;;;;;;16.70;99.90;;;;;;5072309;28;20053;-69
2023/08/06 02:20:59;;;;;;;;;;;16.70;99.90;;;;;;5072141;28;19923;-69
2023/08/06 02:23:25;;;;;;;;;;;16.60;99.90;;;;;;5072092;28;19908;-68
2023/08/06 02:26:17;;;;;;;;;;;16.60;99.90;;;;;;5070523;28;20270;-69
2023/08/06 02:28:42;;;;;;;;;;;16.60;99.90;;;;;;5069450;28;20006;-68
2023/08/06 02:31:08;;;;;;;;;;;16.60;99.90;;;;;;5070654;28;19993;-68
2023/08/06 02:33:33;;;;;;;;;;;16.60;99.90;;;;;;5071905;28;19920;-70
2023/08/06 02:36:05;;;;;;;;;;;16.50;99.90;;;;;;5070504;28;19912;-69
2023/08/06 02:38:31;;;;;;;;;;;16.50;99.90;;;;;;5071743;28;19920;-69
2023/08/06 02:40:57;;;;;;;;;;;16.50;99.90;;;;;;5071471;28;19928;-72
2023/08/06 02:43:22;;;;;;;;;;;16.50;99.90;;;;;;5071362;28;19908;-69
2023/08/06 02:45:48;;;;;;;;;;;16.50;99.90;;;;;;5071440;28;19919;-68
2023/08/06 02:48:14;;;;;;;;;;;16.50;99.90;;;;;;5071796;28;20089;-68
2023/08/06 02:50:42;;;;;;;;;;;16.50;99.90;;;;;;5071360;28;19908;-68
2023/08/06 02:53:08;;;;;;;;;;;16.50;99.90;;;;;;5070252;28;19919;-69
2023/08/06 02:55:34;;;;;;;;;;;16.50;99.90;;;;;;5071206;28;19912;-69
2023/08/06 02:58:00;;;;;;;;;;;16.50;99.90;;;;;;5071168;28;19922;-69
2023/08/06 03:00:26;;;;;;;;;;;16.40;99.90;;;;;;5071634;28;19985;-70
2023/08/06 03:02:52;;;;;;;;;;;16.50;99.90;;;;;;5071410;28;19912;-68
2023/08/06 03:05:18;;;;;;;;;;;16.40;99.90;;;;;;5071174;28;20353;-69
2023/08/06 03:07:43;;;;;;;;;;;16.40;99.90;;;;;;5070237;28;19916;-69
2023/08/06 03:10:09;;;;;;;;;;;16.40;99.90;;;;;;5071032;28;19951;-70
2023/08/06 03:12:34;;;;;;;;;;;16.40;99.90;;;;;;5071715;28;19908;-69
2023/08/06 03:15:00;;;;;;;;;;;16.50;99.90;;;;;;5070847;28;19935;-68
2023/08/06 03:17:26;;;;;;;;;;;16.50;99.90;;;;;;5070618;28;20349;-69
2023/08/06 03:19:51;;;;;;;;;;;16.50;99.90;;;;;;5070867;28;19912;-69
2023/08/06 03:22:17;;;;;;;;;;;16.50;99.90;;;;;;5070787;28;20361;-68
2023/08/06 03:24:42;;;;;;;;;;;16.50;99.90;;;;;;5070695;28;20254;-68
2023/08/06 03:27:08;;;;;;;;;;;16.50;99.90;;;;;;5071245;28;19915;-69
2023/08/06 03:29:33;;;;;;;;;;;16.50;99.90;;;;;;5070603;28;19955;-70
2023/08/06 03:31:59;;;;;;;;;;;16.50;99.90;;;;;;5070768;28;19912;-68
2023/08/06 03:34:24;;;;;;;;;;;16.50;99.90;;;;;;5069423;28;19920;-69
2023/08/06 03:36:50;;;;;;;;;;;16.40;99.90;;;;;;5070561;28;19919;-68
2023/08/06 03:39:15;;;;;;;;;;;16.40;99.90;;;;;;5071280;28;20300;-69
2023/08/06 03:41:41;;;;;;;;;;;16.30;99.90;;;;;;5070652;28;19995;-69
2023/08/06 03:44:07;;;;;;;;;;;16.20;99.90;;;;;;5070702;28;19915;-69
2023/08/06 03:46:33;;;;;;;;;;;16.20;99.90;;;;;;5070713;28;20249;-68
2023/08/06 03:49:02;;;;;;;;;;;16.20;99.90;;;;;;5070462;28;20309;-68
2023/08/06 03:51:27;;;;;;;;;;;16.10;99.90;;;;;;5071018;28;19904;-69
2023/08/06 03:53:53;;;;;;;;;;;16.10;99.90;;;;;;5069591;28;19912;-69
2023/08/06 03:56:19;;;;;;;;;;;16.10;99.90;;;;;;5070509;28;19908;-68
2023/08/06 03:58:44;;;;;;;;;;;16.00;99.90;;;;;;5070560;28;20290;-69
2023/08/06 04:01:10;;;;;;;;;;;16.00;99.90;;;;;;5070331;28;19918;-69
2023/08/06 04:03:35;;;;;;;;;;;16.00;99.90;;;;;;5070422;28;19908;-69
2023/08/06 04:06:04;;;;;;;;;;;16.00;99.90;;;;;;5071194;28;19904;-69
2023/08/06 04:08:30;;;;;;;;;;;16.00;99.90;;;;;;5069300;28;19920;-69
2023/08/06 04:10:55;;;;;;;;;;;16.00;99.90;;;;;;5069162;28;19913;-68
2023/08/06 04:13:21;;;;;;;;;;;15.90;99.90;;;;;;5070366;28;20353;-69
2023/08/06 04:15:47;;;;;;;;;;;15.90;99.90;;;;;;5070253;28;20246;-69
2023/08/06 04:18:13;;;;;;;;;;;16.00;99.90;;;;;;5069960;28;19974;-69
2023/08/06 04:20:45;;;;;;;;;;;16.10;99.90;;;;;;5070267;28;19908;-68
2023/08/06 04:23:10;;;;;;;;;;;16.10;99.90;;;;;;5070069;28;19927;-68
2023/08/06 04:25:36;;;;;;;;;;;16.00;99.90;;;;;;5070304;28;19912;-69
2023/08/06 04:28:01;;;;;;;;;;;16.10;99.90;;;;;;5070242;28;19954;-69
2023/08/06 04:30:27;;;;;;;;;;;16.10;99.90;;;;;;5073794;28;19987;-69
2023/08/06 04:32:52;;;;;;;;;;;16.00;99.90;;;;;;5072729;28;20327;-69
2023/08/06 04:35:18;;;;;;;;;;;16.00;99.90;;;;;;5073974;28;19908;-70
2023/08/06 04:37:43;;;;;;;;;;;16.00;99.90;;;;;;5073744;28;19959;-70
2023/08/06 04:40:09;;;;;;;;;;;16.00;99.90;;;;;;5074101;28;20311;-69
2023/08/06 04:42:35;;;;;;;;;;;16.00;99.90;;;;;;5073501;28;20285;-69
2023/08/06 04:45:01;;;;;;;;;;;16.00;99.90;;;;;;5073111;28;19909;-68
2023/08/06 04:47:27;;;;;;;;;;;16.00;99.90;;;;;;5073614;28;20342;-68
2023/08/06 04:49:53;;;;;;;;;;;16.00;99.90;;;;;;5072759;28;19915;-68
2023/08/06 04:52:18;;;;;;;;;;;16.10;99.90;;;;;;5072561;28;20254;-69
2023/08/06 04:54:44;;;;;;;;;;;16.10;99.90;;;;;;5073872;28;19999;-69
2023/08/06 04:57:09;;;;;;;;;;;16.20;99.90;;;;;;5073849;28;19904;-69
2023/08/06 04:59:35;;;;;;;;;;;16.30;99.90;;;;;;5073424;28;19961;-69
2023/08/06 05:02:01;;;;;;;;;;;16.30;99.90;;;;;;5073308;28;20254;-69
2023/08/06 05:04:26;;;;;;;;;;;16.30;99.90;;;;;;5073460;28;20250;-70
2023/08/06 05:06:52;;;;;;;;;;;16.30;99.90;;;;;;5073368;28;19915;-70
2023/08/06 05:09:17;;;;;;;;;;;16.30;99.90;;;;;;5073778;28;19927;-69
2023/08/06 05:11:43;;;;;;;;;;;16.40;99.90;;;;;;5073196;28;19912;-69
2023/08/06 05:14:09;;;;;;;;;;;16.40;99.90;;;;;;5073170;28;19934;-70
2023/08/06 05:16:34;;;;;;;;;;;16.40;99.90;;;;;;5071841;28;19931;-69
2023/08/06 05:19:00;;;;;;;;;;;16.40;99.90;;;;;;5073163;28;19947;-69
2023/08/06 05:21:25;;;;;;;;;;;16.50;99.90;;;;;;5073777;28;19915;-69
2023/08/06 05:23:51;;;;;;;;;;;16.50;99.90;;;;;;5073076;28;20347;-69
2023/08/06 05:26:19;;;;;;;;;;;16.50;99.90;;;;;;5073124;28;19924;-69
2023/08/06 05:28:45;;;;;;;;;;;16.50;99.90;;;;;;5072079;28;19927;-69
2023/08/06 05:31:11;;;;;;;;;;;16.40;99.90;;;;;;5072952;28;20002;-69
2023/08/06 05:33:36;;;;;;;;;;;16.40;99.90;;;;;;5071819;28;19920;-69
2023/08/06 05:36:02;;;;;;;;;;;16.40;99.90;;;;;;5072381;28;19904;-70
2023/08/06 05:38:29;;;;;;;;;;;16.40;99.90;;;;;;5071804;28;19919;-68
2023/08/06 05:40:56;;;;;;;;;;;16.30;99.90;;;;;;5072551;28;19966;-68
2023/08/06 05:43:21;;;;;;;;;;;16.30;99.90;;;;;;5071711;28;19930;-68
2023/08/06 05:45:48;;;;;;;;;;;16.40;99.90;;;;;;5071730;28;20413;-69
2023/08/06 05:48:14;;;;;;;;;;;16.40;99.90;;;;;;5073074;28;20352;-69
2023/08/06 05:50:40;;;;;;;;;;;16.40;99.90;;;;;;5072530;28;19909;-69
2023/08/06 05:53:05;;;;;;;;;;;16.40;99.90;;;;;;5072598;28;19918;-69
2023/08/06 05:55:32;;;;;;;;;;;16.30;99.90;;;;;;5072515;28;19959;-69
2023/08/06 05:57:58;;;;;;;;;;;16.40;99.90;;;;;;5072351;28;20257;-69
2023/08/06 06:00:23;;;;;;;;;;;16.40;99.90;;;;;;5072790;28;19912;-69
2023/08/06 06:02:49;;;;;;;;;;;16.40;99.90;;;;;;5071107;28;19908;-68
2023/08/06 06:05:15;;;;;;;;;;;16.50;99.90;;;;;;5072266;28;19909;-68
2023/08/06 06:07:40;;;;;;;;;;;16.50;99.90;;;;;;5072125;28;19912;-69
2023/08/06 06:10:06;;;;;;;;;;;16.50;99.90;;;;;;5072090;28;19917;-69
2023/08/06 06:12:32;;;;;;;;;;;16.60;99.90;;;;;;5071491;28;19908;-68
2023/08/06 06:14:57;;;;;;;;;;;16.60;99.90;;;;;;5072132;28;19920;-69
2023/08/06 06:17:23;;;;;;;;;;;16.70;99.90;;;;;;5070955;28;20448;-69
2023/08/06 06:19:48;;;;;;;;;;;16.60;99.90;;;;;;5071907;28;19912;-69
2023/08/06 06:22:14;;;;;;;;;;;16.70;99.90;;;;;;5071963;28;19908;-69
2023/08/06 06:24:40;;;;;;;;;;;16.70;99.90;;;;;;5071606;28;20315;-69
2023/08/06 06:27:05;;;;;;;;;;;16.70;99.90;;;;;;5072029;28;19900;-68
2023/08/06 06:29:31;;;;;;;;;;;16.70;99.90;;;;;;5071502;28;19923;-68
2023/08/06 06:31:57;;;;;;;;;;;16.70;99.90;;;;;;5071363;28;19909;-68
2023/08/06 06:34:22;;;;;;;;;;;16.70;99.90;;;;;;5071325;28;20394;-70
2023/08/06 06:36:48;;;;;;;;;;;16.70;99.90;;;;;;5071299;28;19919;-68
2023/08/06 06:39:13;;;;;;;;;;;16.80;99.90;;;;;;5071009;28;20250;-69
2023/08/06 06:41:39;;;;;;;;;;;16.80;99.90;;;;;;5070423;28;19909;-68
2023/08/06 06:44:05;;;;;;;;;;;16.90;99.90;;;;;;5071293;28;19916;-68
2023/08/06 06:46:31;;;;;;;;;;;16.90;99.90;;;;;;5071437;28;20334;-69
2023/08/06 06:48:56;;;;;;;;;;;17.10;99.90;;;;;;5071048;28;19916;-68
2023/08/06 06:51:22;;;;;;;;;;;17.20;99.90;;;;;;5071070;28;20277;-69
2023/08/06 06:53:48;;;;;;;;;;;17.30;99.90;;;;;;5071050;28;19948;-69
2023/08/06 06:56:14;;;;;;;;;;;17.40;99.90;;;;;;5071104;28;20002;-68
2023/08/06 06:58:40;;;;;;;;;;;17.40;99.90;;;;;;5071140;28;20011;-69
2023/08/06 07:01:06;;;;;;;;;;;17.50;99.90;;;;;;5070089;28;20402;-69
2023/08/06 07:03:32;;;;;;;;;;;17.50;99.90;;;;;;5071528;28;19991;-68
2023/08/06 07:06:00;;;;;;;;;;;17.60;99.90;;;;;;5070907;28;19908;-70
2023/08/06 07:08:26;;;;;;;;;;;17.60;99.90;;;;;;5070941;28;19924;-69
2023/08/06 07:10:59;;;;;;;;;;;17.70;99.90;;;;;;5070006;28;19908;-69
2023/08/06 07:13:25;;;;;;;;;;;17.70;99.90;;;;;;5070975;28;20003;-70
2023/08/06 07:15:50;;;;;;;;;;;17.80;99.90;;;;;;5070747;28;20018;-68
2023/08/06 07:18:16;;;;;;;;;;;17.90;99.90;;;;;;5071132;28;19931;-68
2023/08/06 07:20:41;;;;;;;;;;;17.90;99.90;;;;;;5070519;28;19912;-69
2023/08/06 07:23:07;;;;;;;;;;;18.00;99.90;;;;;;5070816;28;19909;-68
2023/08/06 07:25:32;;;;;;;;;;;18.00;99.90;;;;;;5069555;28;20360;-68
2023/08/06 07:27:58;;;;;;;;;;;18.10;99.90;;;;;;5070697;28;19925;-68
2023/08/06 07:30:23;;;;;;;;;;;18.20;99.90;;;;;;5069961;28;19908;-68
2023/08/06 07:32:49;;;;;;;;;;;18.30;99.90;;;;;;5069414;28;19917;-69
2023/08/06 07:35:15;;;;;;;;;;;18.40;99.90;;;;;;5070642;28;19916;-68
2023/08/06 07:37:41;;;;;;;;;;;18.40;99.90;;;;;;5069702;28;19919;-69
2023/08/06 07:40:06;;;;;;;;;;;18.50;99.90;;;;;;5069541;28;20365;-69
2023/08/06 07:42:32;;;;;;;;;;;18.50;99.90;;;;;;5071191;28;20396;-69
2023/08/06 07:44:58;;;;;;;;;;;18.50;99.90;;;;;;5070667;28;19909;-69
2023/08/06 07:47:24;;;;;;;;;;;18.60;99.90;;;;;;5069635;28;20245;-68
2023/08/06 07:49:49;;;;;;;;;;;18.70;99.90;;;;;;5069459;28;19912;-68
2023/08/06 07:52:15;;;;;;;;;;;18.70;99.90;;;;;;5070508;28;19908;-69
2023/08/06 07:54:41;;;;;;;;;;;18.70;99.90;;;;;;5070543;28;19912;-69
2023/08/06 07:57:06;;;;;;;;;;;18.70;99.90;;;;;;5071370;28;20338;-69
2023/08/06 07:59:32;;;;;;;;;;;18.80;99.90;;;;;;5070624;28;20325;-69
2023/08/06 08:01:58;;;;;;;;;;;18.90;99.90;;;;;;5070323;28;19961;-69
2023/08/06 08:04:24;;;;;;;;;;;19.00;99.90;;;;;;5073606;28;19913;-69
2023/08/06 08:06:49;;;;;;;;;;;19.20;99.90;;;;;;5073364;28;20340;-68
2023/08/06 08:09:15;;;;;;;;;;;19.30;99.90;;;;;;5075192;28;19935;-70
2023/08/06 08:11:41;;;;;;;;;;;19.40;99.90;;;;;;5074777;28;20386;-70
2023/08/06 08:14:06;;;;;;;;;;;19.40;99.90;;;;;;5073247;28;19912;-70
2023/08/06 08:16:32;;;;;;;;;;;19.40;99.90;;;;;;5074256;28;20007;-72
2023/08/06 08:18:57;;;;;;;;;;;19.50;99.90;;;;;;5074492;28;19998;-71
2023/08/06 08:21:24;;;;;;;;;;;19.50;99.90;;;;;;5073667;28;19966;-70
2023/08/06 08:23:50;;;;;;;;;;;20.00;99.90;;;;;;5074572;28;19919;-70
2023/08/06 08:26:15;;;;;;;;;;;20.50;99.90;;;;;;5073468;28;19909;-71
2023/08/06 08:28:41;;;;;;;;;;;20.90;99.90;;;;;;5073895;28;19969;-70
2023/08/06 08:31:11;;;;;;;;;;;21.40;99.90;;;;;;5074054;28;19924;-69
2023/08/06 08:33:39;;;;;;;;;;;21.70;99.90;;;;;;5072444;28;20357;-69
2023/08/06 08:36:04;;;;;;;;;;;22.00;99.90;;;;;;5074336;28;19904;-69
2023/08/06 08:38:30;;;;;;;;;;;22.10;99.90;;;;;;5073740;28;19984;-69
2023/08/06 08:40:56;;;;;;;;;;;22.20;99.90;;;;;;5073934;28;19912;-69
2023/08/06 08:43:23;;;;;;;;;;;22.30;99.90;;;;;;5073690;28;20263;-70
2023/08/06 08:45:52;;;;;;;;;;;22.50;99.90;;;;;;5073651;28;19908;-69
2023/08/06 08:48:19;;;;;;;;;;;22.60;99.90;;;;;;5073946;28;19911;-69
2023/08/06 08:50:45;;;;;;;;;;;22.80;99.60;;;;;;5073512;28;20014;-68
2023/08/06 08:53:11;;;;;;;;;;;23.30;99.80;;;;;;5073930;28;20238;-70
2023/08/06 08:55:37;;;;;;;;;;;24.20;98.50;;;;;;5073657;28;19912;-70
2023/08/06 08:58:03;;;;;;;;;;;24.60;97.50;;;;;;5073383;28;19919;-70
2023/08/06 09:00:29;;;;;;;;;;;25.10;95.50;;;;;;5073780;28;19904;-70
2023/08/06 09:02:54;;;;;;;;;;;25.40;95.60;;;;;;5073330;28;20350;-70
2023/08/06 09:05:20;;;;;;;;;;;26.40;95.80;;;;;;5073202;28;19909;-70
2023/08/06 09:07:48;;;;;;;;;;;27.30;95.00;;;;;;5073013;28;20206;-70
2023/08/06 09:10:13;;;;;;;;;;;27.70;92.60;;;;;;5073238;28;20022;-70
2023/08/06 09:12:39;;;;;;;;;;;27.80;92.10;;;;;;5072099;28;19912;-70
2023/08/06 09:15:05;;;;;;;;;;;28.50;91.50;;;;;;5071672;28;20242;-70
2023/08/06 09:17:31;;;;;;;;;;;29.00;91.50;;;;;;5072113;28;19912;-71
2023/08/06 09:19:56;;;;;;;;;;;29.40;86.60;;;;;;5073169;28;19912;-71
2023/08/06 09:22:22;;;;;;;;;;;29.50;85.70;;;;;;5073408;28;19908;-71
2023/08/06 09:24:48;;;;;;;;;;;30.00;85.70;;;;;;5072791;28;19904;-71
2023/08/06 09:27:14;;;;;;;;;;;29.90;84.50;;;;;;5073125;28;19900;-71
2023/08/06 09:29:43;;;;;;;;;;;29.50;82.90;;;;;;5072739;28;19943;-71
2023/08/06 09:32:09;;;;;;;;;;;29.60;85.00;;;;;;5072727;28;19908;-71
2023/08/06 09:34:34;;;;;;;;;;;30.00;84.40;;;;;;5072576;28;20358;-71
2023/08/06 09:37:00;;;;;;;;;;;30.20;82.30;;;;;;5071528;28;19924;-70
2023/08/06 09:39:29;;;;;;;;;;;30.80;84.50;;;;;;5072874;28;19911;-70
2023/08/06 09:41:58;;;;;;;;;;;31.60;84.20;;;;;;5072619;28;19973;-71
2023/08/06 09:44:25;;;;;;;;;;;31.90;79.60;;;;;;5072314;28;20324;-71
2023/08/06 09:46:58;;;;;;;;;;;31.50;80.90;;;;;;5072462;28;19940;-71
2023/08/06 09:49:27;;;;;;;;;;;31.10;77.00;;;;;;5071119;28;20249;-70
2023/08/06 09:51:55;;;;;;;;;;;31.80;80.60;;;;;;5072188;28;19904;-70
2023/08/06 09:54:26;;;;;;;;;;;32.30;78.40;;;;;;5071645;28;20191;-71
2023/08/06 09:56:52;;;;;;;;;;;32.70;77.00;;;;;;5070775;28;20265;-71
2023/08/06 09:59:18;;;;;;;;;;;33.10;76.30;;;;;;5072278;28;19909;-71
2023/08/06 10:01:45;;;;;;;;;;;32.90;75.10;;;;;;5072185;28;20282;-70
2023/08/06 10:04:12;;;;;;;;;;;31.80;75.70;;;;;;5072078;28;19909;-71
2023/08/06 10:06:38;;;;;;;;;;;31.10;73.70;;;;;;5072012;28;19923;-70
2023/08/06 10:09:04;;;;;;;;;;;30.40;75.30;;;;;;5072403;28;19908;-70
2023/08/06 10:11:30;;;;;;;;;;;30.30;75.00;;;;;;5071815;28;19926;-70
2023/08/06 10:14:05;;;;;;;;;;;29.90;75.40;;;;;;5071837;28;20304;-70
2023/08/06 10:16:31;;;;;;;;;;;29.90;75.30;;;;;;5071966;28;19912;-71
2023/08/06 10:18:57;;;;;;;;;;;29.80;76.90;;;;;;5072065;28;19913;-71
2023/08/06 10:21:27;;;;;;;;;;;30.10;76.20;;;;;;5072641;28;20325;-71
2023/08/06 10:23:53;;;;;;;;;;;29.60;76.60;;;;;;5071945;28;19909;-70
2023/08/06 10:26:19;;;;;;;;;;;29.20;76.80;;;;;;5070874;28;19909;-70
2023/08/06 10:28:45;;;;;;;;;;;29.30;77.40;;;;;;5070119;28;19912;-69
2023/08/06 10:31:10;;;;;;;;;;;28.70;79.20;;;;;;5071570;28;19919;-71
2023/08/06 10:33:45;;;;;;;;;;;28.40;81.00;;;;;;5070213;28;19932;-70
2023/08/06 10:36:11;;;;;;;;;;;27.80;80.00;;;;;;5071905;28;19900;-70
2023/08/06 10:38:47;;;;;;;;;;;27.80;79.90;;;;;;5071324;28;19919;-70
2023/08/06 10:41:31;;;;;;;;;;;27.40;81.10;;;;;;5071457;28;20227;-69
2023/08/06 10:44:08;;;;;;;;;;;27.10;81.40;;;;;;5070370;28;19971;-70
2023/08/06 10:46:33;;;;;;;;;;;26.30;81.20;;;;;;5071121;28;19995;-71
2023/08/06 10:48:59;;;;;;;;;;;26.30;84.10;;;;;;5071068;28;19991;-69
2023/08/06 10:51:25;;;;;;;;;;;26.30;84.00;;;;;;5071517;28;19904;-70
2023/08/06 10:53:51;;;;;;;;;;;26.50;81.00;;;;;;5071182;28;19987;-70
2023/08/06 10:56:17;;;;;;;;;;;26.40;82.60;;;;;;5070614;28;20041;-70
2023/08/06 10:58:43;;;;;;;;;;;26.20;83.40;;;;;;5070958;28;19908;-70
2023/08/06 11:01:08;;;;;;;;;;;26.20;82.60;;;;;;5070840;28;20038;-70
2023/08/06 11:03:34;;;;;;;;;;;26.30;82.80;;;;;;5071308;28;19919;-69
2023/08/06 11:06:00;;;;;;;;;;;26.30;83.50;;;;;;5071188;28;20291;-70
2023/08/06 11:08:26;;;;;;;;;;;26.50;82.20;;;;;;5070626;28;19912;-69
2023/08/06 11:10:52;;;;;;;;;;;26.40;81.40;;;;;;5070651;28;19950;-70
2023/08/06 11:13:20;;;;;;;;;;;26.40;81.20;;;;;;5071007;28;20020;-70
2023/08/06 11:15:46;;;;;;;;;;;26.40;81.40;;;;;;5070630;28;19915;-70
2023/08/06 11:18:11;;;;;;;;;;;26.30;82.20;;;;;;5071336;28;19904;-70
2023/08/06 11:20:38;;;;;;;;;;;26.40;83.40;;;;;;5069575;28;20273;-70
2023/08/06 11:23:04;;;;;;;;;;;26.50;84.30;;;;;;5070602;28;20193;-70
2023/08/06 11:25:30;;;;;;;;;;;26.40;84.10;;;;;;5070659;28;19969;-70
2023/08/06 11:27:55;;;;;;;;;;;26.40;83.30;;;;;;5070648;28;19966;-69
2023/08/06 11:30:21;;;;;;;;;;;26.20;82.60;;;;;;5071313;28;19908;-70
2023/08/06 11:32:47;;;;;;;;;;;25.70;83.60;;;;;;5070644;28;19934;-70
2023/08/06 11:35:13;;;;;;;;;;;25.70;83.90;;;;;;5070404;28;20239;-70
2023/08/06 11:37:39;;;;;;;;;;;25.80;84.30;;;;;;5070281;28;19919;-70
2023/08/06 11:40:08;;;;;;;;;;;26.00;84.30;;;;;;5069341;28;19908;-71
2023/08/06 11:42:35;;;;;;;;;;;25.80;82.70;;;;;;5070705;28;19905;-70
2023/08/06 11:45:02;;;;;;;;;;;25.70;82.40;;;;;;5069279;28;19916;-69
2023/08/06 11:47:27;;;;;;;;;;;25.60;81.40;;;;;;5070335;28;19939;-71
2023/08/06 11:49:54;;;;;;;;;;;25.40;81.30;;;;;;5069184;28;19954;-71
2023/08/06 11:52:20;;;;;;;;;;;25.40;82.40;;;;;;5070519;28;19908;-69
2023/08/06 11:55:11;;;;;;;;;;;25.30;83.20;;;;;;5070277;28;19915;-69
2023/08/06 11:57:44;;;;;;;;;;;25.20;84.00;;;;;;5070438;28;20295;-70
2023/08/06 12:00:11;;;;;;;;;;;25.30;84.20;;;;;;5070813;28;19964;-69
2023/08/06 12:02:38;;;;;;;;;;;25.20;83.50;;;;;;5070273;28;20356;-69
2023/08/06 12:05:09;;;;;;;;;;;25.20;83.80;;;;;;5070669;28;20293;-70
2023/08/06 12:07:41;;;;;;;;;;;25.00;83.80;;;;;;5069108;28;19970;-69
2023/08/06 12:10:07;;;;;;;;;;;25.00;84.00;;;;;;5069943;28;20376;-69
2023/08/06 12:12:33;;;;;;;;;;;25.00;84.10;;;;;;5070625;28;19934;-70
2023/08/06 12:14:58;;;;;;;;;;;24.90;84.50;;;;;;5070011;28;19915;-69
2023/08/06 12:17:24;;;;;;;;;;;25.20;84.90;;;;;;5070066;28;19912;-69
2023/08/06 12:19:50;;;;;;;;;;;25.20;83.80;;;;;;5070148;28;20280;-69
2023/08/06 12:22:16;;;;;;;;;;;25.20;83.40;;;;;;5070142;28;20266;-71
2023/08/06 12:24:42;;;;;;;;;;;25.30;83.60;;;;;;5070162;28;20621;-69
2023/08/06 12:27:08;;;;;;;;;;;25.20;82.70;;;;;;5070661;28;20333;-70
2023/08/06 12:29:33;;;;;;;;;;;25.10;81.90;;;;;;5069887;28;19913;-70
2023/08/06 12:31:59;;;;;;;;;;;25.00;82.00;;;;;;5070125;28;20212;-70
2023/08/06 12:34:25;;;;;;;;;;;25.00;82.60;;;;;;5069820;28;20003;-70
2023/08/06 12:36:50;;;;;;;;;;;25.10;83.30;;;;;;5070112;28;20268;-70
2023/08/06 12:39:15;;;;;;;;;;;25.00;83.50;;;;;;5069251;28;20309;-69
2023/08/06 12:41:43;;;;;;;;;;;24.90;83.50;;;;;;5068691;28;19939;-69
2023/08/06 12:44:09;;;;;;;;;;;24.90;84.10;;;;;;5069774;28;20345;-70
2023/08/06 12:46:34;;;;;;;;;;;24.80;84.80;;;;;;5069740;28;20165;-69
2023/08/06 12:49:00;;;;;;;;;;;24.70;85.40;;;;;;5069796;28;19920;-70
2023/08/06 12:51:25;;;;;;;;;;;24.70;85.70;;;;;;5072951;28;19904;-69
2023/08/06 12:53:51;;;;;;;;;;;24.70;85.70;;;;;;5071985;28;19909;-70
2023/08/06 12:56:16;;;;;;;;;;;24.60;85.90;;;;;;5073506;28;19920;-69
2023/08/06 12:58:42;;;;;;;;;;;24.60;86.00;;;;;;5072168;28;20391;-69
2023/08/06 13:01:08;;;;;;;;;;;24.60;85.70;;;;;;5073244;28;20390;-70
2023/08/06 13:03:33;;;;;;;;;;;24.50;85.00;;;;;;5072525;28;19904;-69
2023/08/06 13:05:59;;;;;;;;;;;24.40;85.20;;;;;;5072298;28;19948;-69
2023/08/06 13:08:24;;;;;;;;;;;24.30;85.50;;;;;;5073070;28;20057;-71
2023/08/06 13:10:50;;;;;;;;;;;24.30;85.60;;;;;;5073126;28;19966;-68
2023/08/06 13:13:15;;;;;;;;;;;24.20;85.80;;;;;;5072850;28;19920;-68
2023/08/06 13:15:41;;;;;;;;;;;24.20;86.40;;;;;;5072622;28;19908;-69
2023/08/06 13:18:07;;;;;;;;;;;24.10;87.00;;;;;;5073138;28;20025;-70
2023/08/06 13:20:32;;;;;;;;;;;24.00;87.70;;;;;;5071697;28;19920;-68
2023/08/06 13:23:00;;;;;;;;;;;24.00;87.70;;;;;;5072942;28;20301;-69
2023/08/06 13:25:27;;;;;;;;;;;24.00;87.00;;;;;;5071579;28;20255;-67
2023/08/06 13:27:52;;;;;;;;;;;23.90;87.10;;;;;;5072679;28;20187;-68
2023/08/06 13:30:18;;;;;;;;;;;23.90;87.30;;;;;;5073070;28;20004;-69
2023/08/06 13:32:44;;;;;;;;;;;23.90;87.30;;;;;;5072435;28;19928;-69
2023/08/06 13:35:09;;;;;;;;;;;23.90;86.80;;;;;;5072583;28;20230;-68
2023/08/06 13:37:35;;;;;;;;;;;23.90;87.50;;;;;;5072561;28;20004;-69
2023/08/06 13:40:01;;;;;;;;;;;24.00;87.50;;;;;;5072541;28;20000;-68
2023/08/06 13:42:26;;;;;;;;;;;24.00;88.10;;;;;;5073436;28;19959;-68
2023/08/06 13:44:52;;;;;;;;;;;23.90;88.80;;;;;;5072695;28;19912;-68
2023/08/06 13:47:18;;;;;;;;;;;24.00;88.80;;;;;;5071220;28;19919;-69
2023/08/06 13:49:43;;;;;;;;;;;24.00;88.40;;;;;;5072175;28;19987;-68
2023/08/06 13:52:09;;;;;;;;;;;24.10;88.20;;;;;;5072192;28;19908;-70
2023/08/06 13:54:34;;;;;;;;;;;24.10;87.80;;;;;;5072811;28;19927;-69
2023/08/06 13:57:00;;;;;;;;;;;24.10;87.70;;;;;;5072255;28;19912;-70
2023/08/06 13:59:25;;;;;;;;;;;23.90;87.30;;;;;;5072196;28;19908;-69
2023/08/06 14:01:53;;;;;;;;;;;23.90;87.30;;;;;;5071954;28;20295;-69
2023/08/06 14:04:19;;;;;;;;;;;23.90;87.70;;;;;;5071836;28;19919;-69
2023/08/06 14:06:45;;;;;;;;;;;23.90;88.40;;;;;;5071632;28;19908;-69
2023/08/06 14:09:13;;;;;;;;;;;23.90;89.20;;;;;;5072341;28;19930;-69
2023/08/06 14:11:39;;;;;;;;;;;23.90;89.20;;;;;;5071795;28;20306;-69